sensor_id;sensor_type;location;lat;lon;timestamp;P1;durP1;ratioP1;P2;durP2;ratioP2
66380;SDS011;53177;52.648;1.214;2023-04-01T00:00:18;18.77;;;6.30;;
66380;SDS011;53177;52.648;1.214;2023-04-01T00:02:45;17.42;;;5.78;;
66380;SDS011;53177;52.648;1.214;2023-04-01T00:05:11;17.63;;;5.43;;
66380;SDS011;53177;52.648;1.214;2023-04-01T00:07:38;19.88;;;6.35;;
66380;SDS011;53177;52.648;1.214;2023-04-01T00:10:04;20.92;;;5.78;;
66380;SDS011;53177;52.648;1.214;2023-04-01T00:12:34;17.88;;;5.30;;
66380;SDS011;53177;52.648;1.214;2023-04-01T00:15:00;15.47;;;5.40;;
66380;SDS011;53177;52.648;1.214;2023-04-01T00:17:26;13.60;;;4.60;;
66380;SDS011;53177;52.648;1.214;2023-04-01T00:19:53;15.82;;;4.90;;
66380;SDS011;53177;52.648;1.214;2023-04-01T00:22:20;14.27;;;4.30;;
66380;SDS011;53177;52.648;1.214;2023-04-01T00:24:45;10.40;;;3.50;;
66380;SDS011;53177;52.648;1.214;2023-04-01T00:27:11;11.18;;;3.30;;
66380;SDS011;53177;52.648;1.214;2023-04-01T00:29:37;11.60;;;3.20;;
66380;SDS011;53177;52.648;1.214;2023-04-01T00:32:02;10.17;;;3.37;;
66380;SDS011;53177;52.648;1.214;2023-04-01T00:34:28;11.27;;;3.97;;
66380;SDS011;53177;52.648;1.214;2023-04-01T00:36:53;9.53;;;3.47;;
66380;SDS011;53177;52.648;1.214;2023-04-01T00:39:19;9.05;;;3.33;;
66380;SDS011;53177;52.648;1.214;2023-04-01T00:41:46;11.48;;;3.50;;
66380;SDS011;53177;52.648;1.214;2023-04-01T00:44:16;9.23;;;3.10;;
66380;SDS011;53177;52.648;1.214;2023-04-01T00:46:43;7.90;;;2.60;;
66380;SDS011;53177;52.648;1.214;2023-04-01T00:49:09;7.97;;;2.83;;
66380;SDS011;53177;52.648;1.214;2023-04-01T00:51:34;7.55;;;2.25;;
66380;SDS011;53177;52.648;1.214;2023-04-01T00:54:03;7.07;;;2.22;;
66380;SDS011;53177;52.648;1.214;2023-04-01T00:56:33;8.27;;;2.40;;
66380;SDS011;53177;52.648;1.214;2023-04-01T00:59:04;8.00;;;2.10;;
66380;SDS011;53177;52.648;1.214;2023-04-01T01:01:33;8.40;;;2.00;;
66380;SDS011;53177;52.648;1.214;2023-04-01T01:04:00;5.88;;;1.75;;
66380;SDS011;53177;52.648;1.214;2023-04-01T01:11:36;4.80;;;1.48;;
66380;SDS011;53177;52.648;1.214;2023-04-01T01:14:14;5.75;;;1.30;;
66380;SDS011;53177;52.648;1.214;2023-04-01T01:16:45;4.65;;;1.30;;
66380;SDS011;53177;52.648;1.214;2023-04-01T01:27:35;5.07;;;1.05;;
66380;SDS011;53177;52.648;1.214;2023-04-01T01:30:08;4.00;;;1.00;;
66380;SDS011;53177;52.648;1.214;2023-04-01T01:35:36;3.70;;;0.80;;
66380;SDS011;53177;52.648;1.214;2023-04-01T01:38:06;4.78;;;1.10;;
66380;SDS011;53177;52.648;1.214;2023-04-01T01:40:36;4.80;;;0.90;;
66380;SDS011;53177;52.648;1.214;2023-04-01T01:43:07;3.92;;;0.98;;
66380;SDS011;53177;52.648;1.214;2023-04-01T01:45:36;3.88;;;1.00;;
66380;SDS011;53177;52.648;1.214;2023-04-01T01:48:08;3.70;;;1.03;;
66380;SDS011;53177;52.648;1.214;2023-04-01T01:50:35;3.67;;;0.80;;
66380;SDS011;53177;52.648;1.214;2023-04-01T01:53:06;3.90;;;0.90;;
66380;SDS011;53177;52.648;1.214;2023-04-01T01:55:35;3.90;;;1.00;;
66380;SDS011;53177;52.648;1.214;2023-04-01T02:00:56;3.80;;;1.10;;
66380;SDS011;53177;52.648;1.214;2023-04-01T02:03:25;3.90;;;1.05;;
66380;SDS011;53177;52.648;1.214;2023-04-01T02:05:55;3.85;;;1.10;;
66380;SDS011;53177;52.648;1.214;2023-04-01T02:08:26;4.03;;;1.08;;
66380;SDS011;53177;52.648;1.214;2023-04-01T02:11:02;4.57;;;1.30;;
66380;SDS011;53177;52.648;1.214;2023-04-01T02:13:48;3.80;;;1.00;;
66380;SDS011;53177;52.648;1.214;2023-04-01T02:16:20;3.78;;;1.10;;
66380;SDS011;53177;52.648;1.214;2023-04-01T02:18:50;4.22;;;1.27;;
66380;SDS011;53177;52.648;1.214;2023-04-01T02:21:19;3.78;;;1.00;;
66380;SDS011;53177;52.648;1.214;2023-04-01T02:23:47;4.72;;;1.20;;
66380;SDS011;53177;52.648;1.214;2023-04-01T02:26:15;3.77;;;1.23;;
66380;SDS011;53177;52.648;1.214;2023-04-01T02:28:42;4.35;;;1.17;;
66380;SDS011;53177;52.648;1.214;2023-04-01T02:31:10;5.35;;;1.10;;
66380;SDS011;53177;52.648;1.214;2023-04-01T02:33:38;5.50;;;1.25;;
66380;SDS011;53177;52.648;1.214;2023-04-01T02:36:04;4.60;;;1.27;;
66380;SDS011;53177;52.648;1.214;2023-04-01T02:38:30;5.47;;;1.50;;
66380;SDS011;53177;52.648;1.214;2023-04-01T02:40:57;5.05;;;1.60;;
66380;SDS011;53177;52.648;1.214;2023-04-01T02:43:24;5.75;;;1.67;;
66380;SDS011;53177;52.648;1.214;2023-04-01T02:45:49;4.50;;;1.40;;
66380;SDS011;53177;52.648;1.214;2023-04-01T02:48:15;5.07;;;1.40;;
66380;SDS011;53177;52.648;1.214;2023-04-01T02:50:40;6.47;;;1.80;;
66380;SDS011;53177;52.648;1.214;2023-04-01T02:53:05;6.70;;;1.70;;
66380;SDS011;53177;52.648;1.214;2023-04-01T02:55:32;4.40;;;1.42;;
66380;SDS011;53177;52.648;1.214;2023-04-01T02:57:58;6.27;;;1.53;;
66380;SDS011;53177;52.648;1.214;2023-04-01T03:00:23;5.78;;;1.80;;
66380;SDS011;53177;52.648;1.214;2023-04-01T03:02:49;5.10;;;1.60;;
66380;SDS011;53177;52.648;1.214;2023-04-01T03:05:15;6.32;;;1.75;;
66380;SDS011;53177;52.648;1.214;2023-04-01T03:07:40;6.37;;;1.90;;
66380;SDS011;53177;52.648;1.214;2023-04-01T03:10:06;5.03;;;2.00;;
66380;SDS011;53177;52.648;1.214;2023-04-01T03:12:32;7.00;;;2.28;;
66380;SDS011;53177;52.648;1.214;2023-04-01T03:14:57;7.87;;;2.40;;
66380;SDS011;53177;52.648;1.214;2023-04-01T03:17:22;8.47;;;2.50;;
66380;SDS011;53177;52.648;1.214;2023-04-01T03:19:48;6.20;;;1.90;;
66380;SDS011;53177;52.648;1.214;2023-04-01T03:22:13;8.63;;;2.60;;
66380;SDS011;53177;52.648;1.214;2023-04-01T03:24:39;7.07;;;2.35;;
66380;SDS011;53177;52.648;1.214;2023-04-01T03:27:05;6.73;;;2.47;;
66380;SDS011;53177;52.648;1.214;2023-04-01T03:29:30;6.88;;;2.38;;
66380;SDS011;53177;52.648;1.214;2023-04-01T03:31:55;6.72;;;2.30;;
66380;SDS011;53177;52.648;1.214;2023-04-01T03:34:23;6.80;;;2.30;;
66380;SDS011;53177;52.648;1.214;2023-04-01T03:36:48;8.77;;;2.25;;
66380;SDS011;53177;52.648;1.214;2023-04-01T03:39:14;6.53;;;1.80;;
66380;SDS011;53177;52.648;1.214;2023-04-01T03:41:43;5.03;;;1.73;;
66380;SDS011;53177;52.648;1.214;2023-04-01T03:44:09;4.75;;;1.85;;
66380;SDS011;53177;52.648;1.214;2023-04-01T03:46:34;5.87;;;1.67;;
66380;SDS011;53177;52.648;1.214;2023-04-01T03:49:00;5.77;;;1.57;;
66380;SDS011;53177;52.648;1.214;2023-04-01T03:51:25;5.37;;;1.50;;
66380;SDS011;53177;52.648;1.214;2023-04-01T03:53:50;4.23;;;1.40;;
66380;SDS011;53177;52.648;1.214;2023-04-01T03:56:16;6.68;;;1.50;;
66380;SDS011;53177;52.648;1.214;2023-04-01T03:58:41;6.53;;;1.57;;
66380;SDS011;53177;52.648;1.214;2023-04-01T04:01:13;6.53;;;1.70;;
66380;SDS011;53177;52.648;1.214;2023-04-01T04:03:44;5.15;;;1.90;;
66380;SDS011;53177;52.648;1.214;2023-04-01T04:06:10;5.13;;;1.30;;
66380;SDS011;53177;52.648;1.214;2023-04-01T04:08:37;6.35;;;1.38;;
66380;SDS011;53177;52.648;1.214;2023-04-01T04:11:03;5.00;;;1.60;;
66380;SDS011;53177;52.648;1.214;2023-04-01T04:13:28;6.50;;;1.67;;
66380;SDS011;53177;52.648;1.214;2023-04-01T04:15:54;5.97;;;1.80;;
66380;SDS011;53177;52.648;1.214;2023-04-01T04:18:20;7.22;;;1.60;;
66380;SDS011;53177;52.648;1.214;2023-04-01T04:20:45;8.33;;;2.30;;
66380;SDS011;53177;52.648;1.214;2023-04-01T04:23:16;8.87;;;2.00;;
66380;SDS011;53177;52.648;1.214;2023-04-01T04:25:52;7.90;;;2.20;;
66380;SDS011;53177;52.648;1.214;2023-04-01T04:28:28;9.70;;;2.50;;
66380;SDS011;53177;52.648;1.214;2023-04-01T04:30:54;10.20;;;2.80;;
66380;SDS011;53177;52.648;1.214;2023-04-01T04:33:20;9.63;;;2.80;;
66380;SDS011;53177;52.648;1.214;2023-04-01T04:35:47;10.05;;;2.88;;
66380;SDS011;53177;52.648;1.214;2023-04-01T04:38:12;11.57;;;3.27;;
66380;SDS011;53177;52.648;1.214;2023-04-01T04:40:38;10.10;;;2.78;;
66380;SDS011;53177;52.648;1.214;2023-04-01T04:43:05;14.55;;;3.05;;
66380;SDS011;53177;52.648;1.214;2023-04-01T04:45:31;10.23;;;2.53;;
66380;SDS011;53177;52.648;1.214;2023-04-01T04:47:57;15.27;;;3.35;;
66380;SDS011;53177;52.648;1.214;2023-04-01T04:50:23;14.50;;;2.90;;
66380;SDS011;53177;52.648;1.214;2023-04-01T04:52:50;12.80;;;3.80;;
66380;SDS011;53177;52.648;1.214;2023-04-01T04:55:16;17.85;;;3.78;;
66380;SDS011;53177;52.648;1.214;2023-04-01T04:57:41;11.13;;;2.93;;
66380;SDS011;53177;52.648;1.214;2023-04-01T05:00:07;14.43;;;3.47;;
66380;SDS011;53177;52.648;1.214;2023-04-01T05:02:33;12.98;;;2.80;;
66380;SDS011;53177;52.648;1.214;2023-04-01T05:04:59;12.10;;;2.72;;
66380;SDS011;53177;52.648;1.214;2023-04-01T05:07:25;12.43;;;3.53;;
66380;SDS011;53177;52.648;1.214;2023-04-01T05:09:50;13.35;;;2.97;;
66380;SDS011;53177;52.648;1.214;2023-04-01T05:12:16;15.97;;;2.87;;
66380;SDS011;53177;52.648;1.214;2023-04-01T05:14:42;11.93;;;2.33;;
66380;SDS011;53177;52.648;1.214;2023-04-01T05:17:11;9.88;;;2.42;;
66380;SDS011;53177;52.648;1.214;2023-04-01T05:19:40;9.90;;;1.70;;
66380;SDS011;53177;52.648;1.214;2023-04-01T05:22:08;7.60;;;1.70;;
66380;SDS011;53177;52.648;1.214;2023-04-01T05:24:35;6.50;;;1.70;;
66380;SDS011;53177;52.648;1.214;2023-04-01T05:27:00;7.63;;;1.33;;
66380;SDS011;53177;52.648;1.214;2023-04-01T05:29:26;8.93;;;1.20;;
66380;SDS011;53177;52.648;1.214;2023-04-01T05:31:51;5.17;;;1.17;;
66380;SDS011;53177;52.648;1.214;2023-04-01T05:34:17;7.77;;;1.50;;
66380;SDS011;53177;52.648;1.214;2023-04-01T05:36:42;5.67;;;1.30;;
66380;SDS011;53177;52.648;1.214;2023-04-01T05:39:08;6.30;;;1.20;;
66380;SDS011;53177;52.648;1.214;2023-04-01T05:41:34;4.50;;;1.00;;
66380;SDS011;53177;52.648;1.214;2023-04-01T05:44:01;4.68;;;1.10;;
66380;SDS011;53177;52.648;1.214;2023-04-01T05:46:26;4.65;;;1.05;;
66380;SDS011;53177;52.648;1.214;2023-04-01T05:48:52;6.15;;;1.20;;
66380;SDS011;53177;52.648;1.214;2023-04-01T05:51:17;5.20;;;1.00;;
66380;SDS011;53177;52.648;1.214;2023-04-01T05:53:42;6.40;;;1.53;;
66380;SDS011;53177;52.648;1.214;2023-04-01T05:56:08;7.07;;;1.80;;
66380;SDS011;53177;52.648;1.214;2023-04-01T05:58:34;7.60;;;1.83;;
66380;SDS011;53177;52.648;1.214;2023-04-01T06:01:05;7.53;;;1.73;;
66380;SDS011;53177;52.648;1.214;2023-04-01T06:03:35;9.68;;;1.75;;
66380;SDS011;53177;52.648;1.214;2023-04-01T06:06:00;5.33;;;1.47;;
66380;SDS011;53177;52.648;1.214;2023-04-01T06:08:27;7.13;;;1.80;;
66380;SDS011;53177;52.648;1.214;2023-04-01T06:13:47;8.63;;;1.80;;
66380;SDS011;53177;52.648;1.214;2023-04-01T06:20:03;9.20;;;1.95;;
66380;SDS011;53177;52.648;1.214;2023-04-01T06:22:35;8.90;;;2.00;;
66380;SDS011;53177;52.648;1.214;2023-04-01T06:38:47;8.88;;;2.10;;
66380;SDS011;53177;52.648;1.214;2023-04-01T06:44:04;10.07;;;1.90;;
66380;SDS011;53177;52.648;1.214;2023-04-01T06:49:50;7.57;;;1.77;;
66380;SDS011;53177;52.648;1.214;2023-04-01T06:55:01;6.75;;;1.60;;
66380;SDS011;53177;52.648;1.214;2023-04-01T06:57:43;7.38;;;1.63;;
66380;SDS011;53177;52.648;1.214;2023-04-01T07:05:48;9.25;;;1.50;;
66380;SDS011;53177;52.648;1.214;2023-04-01T07:08:23;6.78;;;1.45;;
66380;SDS011;53177;52.648;1.214;2023-04-01T07:10:54;8.88;;;1.30;;
66380;SDS011;53177;52.648;1.214;2023-04-01T07:18:44;11.50;;;1.88;;
66380;SDS011;53177;52.648;1.214;2023-04-01T07:21:25;6.05;;;1.40;;
66380;SDS011;53177;52.648;1.214;2023-04-01T07:23:57;7.85;;;2.17;;
66380;SDS011;53177;52.648;1.214;2023-04-01T07:26:28;8.03;;;1.50;;
66380;SDS011;53177;52.648;1.214;2023-04-01T07:28:53;6.60;;;1.40;;
66380;SDS011;53177;52.648;1.214;2023-04-01T07:34:28;8.90;;;1.60;;
66380;SDS011;53177;52.648;1.214;2023-04-01T07:37:12;8.88;;;1.70;;
66380;SDS011;53177;52.648;1.214;2023-04-01T07:39:49;6.32;;;1.40;;
66380;SDS011;53177;52.648;1.214;2023-04-01T07:45:11;7.65;;;1.30;;
66380;SDS011;53177;52.648;1.214;2023-04-01T07:48:01;6.85;;;1.70;;
66380;SDS011;53177;52.648;1.214;2023-04-01T07:56:09;11.00;;;2.00;;
66380;SDS011;53177;52.648;1.214;2023-04-01T07:58:52;10.68;;;2.40;;
66380;SDS011;53177;52.648;1.214;2023-04-01T08:07:13;13.57;;;2.50;;
66380;SDS011;53177;52.648;1.214;2023-04-01T08:15:38;13.85;;;2.38;;
66380;SDS011;53177;52.648;1.214;2023-04-01T08:21:18;15.07;;;3.15;;
66380;SDS011;53177;52.648;1.214;2023-04-01T08:23:47;11.97;;;2.40;;
66380;SDS011;53177;52.648;1.214;2023-04-01T08:28:52;12.38;;;2.67;;
66380;SDS011;53177;52.648;1.214;2023-04-01T08:34:26;12.40;;;2.03;;
66380;SDS011;53177;52.648;1.214;2023-04-01T08:36:59;15.73;;;2.40;;
66380;SDS011;53177;52.648;1.214;2023-04-01T08:53:10;10.90;;;2.25;;
66380;SDS011;53177;52.648;1.214;2023-04-01T08:58:37;14.85;;;2.97;;
66380;SDS011;53177;52.648;1.214;2023-04-01T09:01:26;14.18;;;2.90;;
66380;SDS011;53177;52.648;1.214;2023-04-01T09:27:11;14.27;;;2.80;;
66380;SDS011;53177;52.648;1.214;2023-04-01T09:32:54;14.55;;;2.85;;
66380;SDS011;53177;52.648;1.214;2023-04-01T09:35:50;12.83;;;3.00;;
66380;SDS011;53177;52.648;1.214;2023-04-01T09:41:19;14.95;;;2.80;;
66380;SDS011;53177;52.648;1.214;2023-04-01T09:44:01;13.20;;;3.30;;
66380;SDS011;53177;52.648;1.214;2023-04-01T09:49:40;13.73;;;3.20;;
66380;SDS011;53177;52.648;1.214;2023-04-01T09:55:03;16.55;;;3.40;;
66380;SDS011;53177;52.648;1.214;2023-04-01T10:07:03;13.00;;;3.38;;
66380;SDS011;53177;52.648;1.214;2023-04-01T10:09:56;15.35;;;3.45;;
66380;SDS011;53177;52.648;1.214;2023-04-01T10:15:46;11.02;;;2.53;;
66380;SDS011;53177;52.648;1.214;2023-04-01T10:29:06;16.23;;;3.97;;
66380;SDS011;53177;52.648;1.214;2023-04-01T10:32:34;15.07;;;3.00;;
66380;SDS011;53177;52.648;1.214;2023-04-01T10:49:10;13.25;;;3.35;;
66380;SDS011;53177;52.648;1.214;2023-04-01T10:51:47;10.23;;;2.77;;
66380;SDS011;53177;52.648;1.214;2023-04-01T10:54:49;12.00;;;2.42;;
66380;SDS011;53177;52.648;1.214;2023-04-01T11:17:13;11.20;;;2.42;;
66380;SDS011;53177;52.648;1.214;2023-04-01T11:23:01;11.95;;;2.40;;
66380;SDS011;53177;52.648;1.214;2023-04-01T11:30:53;11.48;;;2.60;;
66380;SDS011;53177;52.648;1.214;2023-04-01T11:36:15;10.68;;;1.95;;
66380;SDS011;53177;52.648;1.214;2023-04-01T11:52:33;7.38;;;1.80;;
66380;SDS011;53177;52.648;1.214;2023-04-01T12:12:20;9.98;;;2.58;;
66380;SDS011;53177;52.648;1.214;2023-04-01T12:15:10;8.97;;;2.00;;
66380;SDS011;53177;52.648;1.214;2023-04-01T12:20:44;12.15;;;2.55;;
66380;SDS011;53177;52.648;1.214;2023-04-01T12:23:28;8.95;;;2.45;;
66380;SDS011;53177;52.648;1.214;2023-04-01T12:39:18;8.40;;;2.95;;
66380;SDS011;53177;52.648;1.214;2023-04-01T12:41:53;13.40;;;3.20;;
66380;SDS011;53177;52.648;1.214;2023-04-01T12:44:32;10.88;;;2.67;;
66380;SDS011;53177;52.648;1.214;2023-04-01T12:47:14;12.65;;;2.35;;
66380;SDS011;53177;52.648;1.214;2023-04-01T12:55:43;7.83;;;2.23;;
66380;SDS011;53177;52.648;1.214;2023-04-01T13:06:43;11.02;;;2.20;;
66380;SDS011;53177;52.648;1.214;2023-04-01T13:14:59;5.93;;;1.60;;
66380;SDS011;53177;52.648;1.214;2023-04-01T13:17:50;11.30;;;2.28;;
66380;SDS011;53177;52.648;1.214;2023-04-01T13:20:24;13.95;;;2.20;;
66380;SDS011;53177;52.648;1.214;2023-04-01T13:25:53;10.63;;;2.28;;
66380;SDS011;53177;52.648;1.214;2023-04-01T13:28:39;12.05;;;2.08;;
66380;SDS011;53177;52.648;1.214;2023-04-01T13:40:02;6.75;;;1.80;;
66380;SDS011;53177;52.648;1.214;2023-04-01T13:42:53;7.07;;;1.80;;
66380;SDS011;53177;52.648;1.214;2023-04-01T13:45:29;9.43;;;1.95;;
66380;SDS011;53177;52.648;1.214;2023-04-01T14:04:49;8.50;;;1.80;;
66380;SDS011;53177;52.648;1.214;2023-04-01T14:10:17;6.95;;;1.42;;
66380;SDS011;53177;52.648;1.214;2023-04-01T14:12:48;8.05;;;1.30;;
66380;SDS011;53177;52.648;1.214;2023-04-01T14:21:27;5.57;;;1.38;;
66380;SDS011;53177;52.648;1.214;2023-04-01T14:45:46;5.00;;;0.90;;
66380;SDS011;53177;52.648;1.214;2023-04-01T14:54:08;6.18;;;1.00;;
66380;SDS011;53177;52.648;1.214;2023-04-01T14:56:48;4.60;;;1.10;;
66380;SDS011;53177;52.648;1.214;2023-04-01T15:02:01;4.95;;;1.30;;
66380;SDS011;53177;52.648;1.214;2023-04-01T15:04:38;6.00;;;1.00;;
66380;SDS011;53177;52.648;1.214;2023-04-01T15:07:20;3.70;;;0.90;;
66380;SDS011;53177;52.648;1.214;2023-04-01T15:15:14;6.57;;;1.20;;
66380;SDS011;53177;52.648;1.214;2023-04-01T15:21:04;5.05;;;1.10;;
66380;SDS011;53177;52.648;1.214;2023-04-01T15:34:26;5.53;;;1.03;;
66380;SDS011;53177;52.648;1.214;2023-04-01T15:36:56;5.55;;;1.08;;
66380;SDS011;53177;52.648;1.214;2023-04-01T15:39:24;4.97;;;0.90;;
66380;SDS011;53177;52.648;1.214;2023-04-01T15:42:09;4.45;;;0.77;;
66380;SDS011;53177;52.648;1.214;2023-04-01T15:44:51;5.65;;;0.93;;
66380;SDS011;53177;52.648;1.214;2023-04-01T16:00:28;4.03;;;0.80;;
66380;SDS011;53177;52.648;1.214;2023-04-01T16:06:20;3.47;;;0.80;;
66380;SDS011;53177;52.648;1.214;2023-04-01T16:17:05;4.53;;;1.08;;
66380;SDS011;53177;52.648;1.214;2023-04-01T16:19:41;4.25;;;0.80;;
66380;SDS011;53177;52.648;1.214;2023-04-01T16:30:37;4.13;;;0.82;;
66380;SDS011;53177;52.648;1.214;2023-04-01T16:35:47;3.92;;;0.80;;
66380;SDS011;53177;52.648;1.214;2023-04-01T16:38:43;4.75;;;1.08;;
66380;SDS011;53177;52.648;1.214;2023-04-01T16:41:17;5.23;;;0.90;;
66380;SDS011;53177;52.648;1.214;2023-04-01T16:43:50;4.60;;;1.10;;
66380;SDS011;53177;52.648;1.214;2023-04-01T16:54:28;7.07;;;1.30;;
66380;SDS011;53177;52.648;1.214;2023-04-01T16:57:10;5.43;;;1.55;;
66380;SDS011;53177;52.648;1.214;2023-04-01T16:59:46;8.60;;;1.92;;
66380;SDS011;53177;52.648;1.214;2023-04-01T17:02:47;7.80;;;1.95;;
66380;SDS011;53177;52.648;1.214;2023-04-01T17:05:17;8.38;;;1.88;;
66380;SDS011;53177;52.648;1.214;2023-04-01T17:16:19;7.70;;;2.50;;
66380;SDS011;53177;52.648;1.214;2023-04-01T17:21:47;8.07;;;2.33;;
66380;SDS011;53177;52.648;1.214;2023-04-01T17:30:38;10.10;;;3.17;;
66380;SDS011;53177;52.648;1.214;2023-04-01T17:41:47;11.55;;;3.45;;
66380;SDS011;53177;52.648;1.214;2023-04-01T17:44:44;12.18;;;3.60;;
66380;SDS011;53177;52.648;1.214;2023-04-01T17:50:07;12.17;;;3.77;;
66380;SDS011;53177;52.648;1.214;2023-04-01T17:52:39;9.38;;;3.33;;
66380;SDS011;53177;52.648;1.214;2023-04-01T17:59:01;10.45;;;3.63;;
66380;SDS011;53177;52.648;1.214;2023-04-01T18:15:36;11.80;;;3.95;;
66380;SDS011;53177;52.648;1.214;2023-04-01T18:18:08;12.30;;;3.90;;
66380;SDS011;53177;52.648;1.214;2023-04-01T18:20:57;13.10;;;3.67;;
66380;SDS011;53177;52.648;1.214;2023-04-01T18:23:35;12.82;;;3.78;;
66380;SDS011;53177;52.648;1.214;2023-04-01T18:26:12;11.65;;;3.85;;
66380;SDS011;53177;52.648;1.214;2023-04-01T18:31:45;12.67;;;3.23;;
66380;SDS011;53177;52.648;1.214;2023-04-01T18:34:20;14.32;;;4.10;;
66380;SDS011;53177;52.648;1.214;2023-04-01T18:37:25;9.93;;;3.08;;
66380;SDS011;53177;52.648;1.214;2023-04-01T18:39:57;12.55;;;3.80;;
66380;SDS011;53177;52.648;1.214;2023-04-01T18:42:56;11.98;;;3.42;;
66380;SDS011;53177;52.648;1.214;2023-04-01T18:45:59;11.57;;;3.40;;
66380;SDS011;53177;52.648;1.214;2023-04-01T18:51:16;12.32;;;3.30;;
66380;SDS011;53177;52.648;1.214;2023-04-01T18:53:55;9.95;;;3.20;;
66380;SDS011;53177;52.648;1.214;2023-04-01T19:10:11;12.85;;;3.55;;
66380;SDS011;53177;52.648;1.214;2023-04-01T19:20:41;11.23;;;4.10;;
66380;SDS011;53177;52.648;1.214;2023-04-01T19:28:28;12.23;;;4.70;;
66380;SDS011;53177;52.648;1.214;2023-04-01T19:31:03;12.38;;;4.35;;
66380;SDS011;53177;52.648;1.214;2023-04-01T19:36:24;10.27;;;4.30;;
66380;SDS011;53177;52.648;1.214;2023-04-01T19:39:10;16.03;;;5.20;;
66380;SDS011;53177;52.648;1.214;2023-04-01T19:44:48;15.30;;;5.47;;
66380;SDS011;53177;52.648;1.214;2023-04-01T19:50:37;17.48;;;6.22;;
66380;SDS011;53177;52.648;1.214;2023-04-01T19:53:16;20.97;;;6.67;;
66380;SDS011;53177;52.648;1.214;2023-04-01T19:55:50;21.88;;;5.82;;
66380;SDS011;53177;52.648;1.214;2023-04-01T19:58:41;16.70;;;5.90;;
66380;SDS011;53177;52.648;1.214;2023-04-01T20:01:11;23.00;;;7.00;;
66380;SDS011;53177;52.648;1.214;2023-04-01T20:03:55;22.88;;;7.35;;
66380;SDS011;53177;52.648;1.214;2023-04-01T20:09:03;20.25;;;6.50;;
66380;SDS011;53177;52.648;1.214;2023-04-01T20:14:26;20.80;;;6.53;;
66380;SDS011;53177;52.648;1.214;2023-04-01T20:16:58;15.95;;;6.25;;
66380;SDS011;53177;52.648;1.214;2023-04-01T20:19:28;24.80;;;6.80;;
66380;SDS011;53177;52.648;1.214;2023-04-01T20:22:00;20.88;;;6.80;;
66380;SDS011;53177;52.648;1.214;2023-04-01T20:24:30;24.98;;;7.15;;
66380;SDS011;53177;52.648;1.214;2023-04-01T20:29:53;24.35;;;8.45;;
66380;SDS011;53177;52.648;1.214;2023-04-01T20:43:52;25.33;;;7.40;;
66380;SDS011;53177;52.648;1.214;2023-04-01T20:46:30;24.13;;;7.50;;
66380;SDS011;53177;52.648;1.214;2023-04-01T20:49:14;32.30;;;8.10;;
66380;SDS011;53177;52.648;1.214;2023-04-01T20:51:54;25.52;;;7.88;;
66380;SDS011;53177;52.648;1.214;2023-04-01T20:57:25;26.00;;;7.55;;
66380;SDS011;53177;52.648;1.214;2023-04-01T21:11:13;29.30;;;8.57;;
66380;SDS011;53177;52.648;1.214;2023-04-01T21:28:02;33.80;;;9.83;;
66380;SDS011;53177;52.648;1.214;2023-04-01T22:05:08;35.80;;;11.48;;
66380;SDS011;53177;52.648;1.214;2023-04-01T22:07:25;33.28;;;12.18;;
66380;SDS011;53177;52.648;1.214;2023-04-01T22:13:10;35.20;;;11.60;;
66380;SDS011;53177;52.648;1.214;2023-04-01T22:23:49;28.20;;;12.07;;
66380;SDS011;53177;52.648;1.214;2023-04-01T22:26:27;31.57;;;10.77;;
66380;SDS011;53177;52.648;1.214;2023-04-01T22:42:53;26.95;;;8.90;;
66380;SDS011;53177;52.648;1.214;2023-04-01T22:53:32;31.93;;;10.00;;
66380;SDS011;53177;52.648;1.214;2023-04-01T22:56:03;27.13;;;9.25;;
66380;SDS011;53177;52.648;1.214;2023-04-01T23:01:49;31.85;;;9.60;;
66380;SDS011;53177;52.648;1.214;2023-04-01T23:04:21;24.00;;;9.30;;
66380;SDS011;53177;52.648;1.214;2023-04-01T23:06:54;27.37;;;10.13;;
66380;SDS011;53177;52.648;1.214;2023-04-01T23:09:27;23.10;;;9.02;;
66380;SDS011;53177;52.648;1.214;2023-04-01T23:12:12;23.95;;;8.65;;
66380;SDS011;53177;52.648;1.214;2023-04-01T23:14:44;26.25;;;10.23;;
66380;SDS011;53177;52.648;1.214;2023-04-01T23:22:34;26.57;;;10.00;;
66380;SDS011;53177;52.648;1.214;2023-04-01T23:30:57;24.77;;;9.30;;
66380;SDS011;53177;52.648;1.214;2023-04-01T23:33:23;34.73;;;10.00;;
66380;SDS011;53177;52.648;1.214;2023-04-01T23:36:02;25.77;;;9.25;;
66380;SDS011;53177;52.648;1.214;2023-04-01T23:38:38;24.88;;;9.23;;
66380;SDS011;53177;52.648;1.214;2023-04-01T23:41:20;22.67;;;9.30;;
66380;SDS011;53177;52.648;1.214;2023-04-01T23:43:58;22.75;;;7.88;;
66380;SDS011;53177;52.648;1.214;2023-04-01T23:46:27;25.00;;;8.38;;
66380;SDS011;53177;52.648;1.214;2023-04-01T23:48:55;22.63;;;8.10;;
66380;SDS011;53177;52.648;1.214;2023-04-01T23:51:21;34.72;;;11.05;;
66380;SDS011;53177;52.648;1.214;2023-04-01T23:53:57;24.08;;;8.50;;
66380;SDS011;53177;52.648;1.214;2023-04-01T23:56:37;28.58;;;8.30;;
66380;SDS011;53177;52.648;1.214;2023-04-01T23:59:09;26.70;;;8.10;;
